Aérodrome :
LOGIN :

S'inscrire | Disclaimer

   EN    FR    IT 

 










Légende :    VFR   VFR Marginal   IFR   IFR Intensif   IFR Très Intensif
Visi : 
Plafond : 
>= 8 km
>= 3000ft
5 à 8 km
1000 à 3000 ft
1500m à 5 km
500 à 1000 ft
800 à 1500m
200 à 500 ft
< 800m
< 200 ft
Symboles :   Orages  Brouillard  Fortes neiges  Fortes précipitations  Vent > 20 kt
SIGMETs :   Divers  Orages  Givrage  Turbulence  Onde Orograph.  Cendres Volcan.







- Altitude de l'aérodrome : 1188 ft


LKLN - Plzen Line

DERNIER METAR :
  • 261724Z AUTO VRB02KT 9000 -RA BKN011 BKN017 OVC025 05/04 Q1011

METARs EXPIRÉS :
  • 261714Z AUTO VRB01KT 7000 -RA SCT010 BKN017 OVC024 05/04 Q1012
  • 261701Z AUTO VRB02KT 9999 -RA FEW010 BKN012 OVC018 05/03 Q1012
  • 261600Z AUTO VRB02KT 9999 -RA SCT010 BKN015 OVC021 05/04 Q1011
  • 261554Z AUTO VRB02KT 9999 -RA SCT010 BKN015 OVC021 05/04 Q1011
  • 261544Z AUTO VRB02KT 9999 -RA SCT010 BKN013 OVC019 05/04 Q1011
  • 261533Z AUTO 02003KT 290V080 9999 -RA BKN009 BKN019 OVC036 05/03 Q1011
  • 261516Z AUTO 04003KT 360V100 9999 -RA BKN009 BKN013 OVC019 05/03 Q1011
  • 261500Z AUTO 04004KT 360V100 9999 -RA FEW006 BKN008 OVC013 04/03 Q1011
  • 261452Z AUTO 03003KT 320V100 9999 -RA SCT006 BKN008 OVC028 04/03 Q1011
  • 261440Z AUTO VRB02KT 9999 -RA BKN006 BKN014 OVC028 04/04 Q1011

TAF N/A
Pas de NOTAMs connus pour ce terrain.



MET'MAP, la Météo Aéronautique d'un coup d'oeil ! - Copyright ORBIFLY Décembre 2007 - Disclaimer

ORBIFLY MET'MAP TEAM :

Programmation & Développement : Alexandra Zaïnal
Conception & Développement : Baudouin d'Aumeries
Co-Programmation & Développement : Marc-Olivier Méhu
Soutien technique & logistique : Manuel Goepfert

Contact : metmap@orbifly.com




SOURCES & CREDITS :

   NOAA